Time;durP1;ratioP1;P1;durP2;ratioP2;P2;SDS_P1;SDS_P2;PMS_P1;PMS_P2;Temp;Humidity;BMP_temperature;BMP_pressure;BME280_temperature;BME280_humidity;BME280_pressure;Samples;Min_cycle;Max_cycle;Signal;HPM_P1;HPM_P2
2022/07/01 00:00:29;;;;;;;12.73;6.43;;;;;;;;;;6207516;23;20158;-89
2022/07/01 00:03:35;;;;;;;12.73;5.88;;;;;;;;;;6207740;23;20170;-90
2022/07/01 00:06:44;;;;;;;10.10;6.18;;;;;;;;;;6208394;23;20262;-89
2022/07/01 00:09:52;;;;;;;10.88;4.65;;;;;;;;;;6208824;23;20214;-90
2022/07/01 00:12:58;;;;;;;8.55;5.20;;;;;;;;;;6210071;23;20163;-88
2022/07/01 00:16:03;;;;;;;10.00;4.90;;;;;;;;;;6208328;23;20191;-89
2022/07/01 00:19:08;;;;;;;9.73;5.03;;;;;;;;;;6208400;23;20211;-89
2022/07/01 00:22:14;;;;;;;8.02;5.35;;;;;;;;;;6209084;23;20171;-89
2022/07/01 00:25:21;;;;;;;8.70;5.80;;;;;;;;;;6208756;23;20159;-90
2022/07/01 00:28:26;;;;;;;11.35;5.60;;;;;;;;;;6208843;23;20166;-88
2022/07/01 00:31:31;;;;;;;13.95;6.00;;;;;;;;;;6209540;23;20222;-90
2022/07/01 00:34:37;;;;;;;10.35;5.28;;;;;;;;;;6210747;23;20151;-88
2022/07/01 00:37:42;;;;;;;9.93;5.07;;;;;;;;;;6210619;23;20210;-88
2022/07/01 00:40:52;;;;;;;8.00;4.20;;;;;;;;;;6209958;23;20632;-89
2022/07/01 00:43:58;;;;;;;13.77;5.65;;;;;;;;;;6208737;23;20595;-89
2022/07/01 00:47:05;;;;;;;9.60;5.28;;;;;;;;;;6209382;23;20166;-88
2022/07/01 00:50:11;;;;;;;9.02;5.68;;;;;;;;;;6211255;23;20167;-89
2022/07/01 00:53:16;;;;;;;14.60;5.50;;;;;;;;;;6211048;23;20167;-89
2022/07/01 00:56:23;;;;;;;9.85;4.82;;;;;;;;;;6209136;23;20171;-89
2022/07/01 00:59:31;;;;;;;10.95;5.47;;;;;;;;;;6229315;23;20254;-89
2022/07/01 01:02:36;;;;;;;10.98;5.38;;;;;;;;;;6209193;23;20167;-88
2022/07/01 01:05:42;;;;;;;8.65;5.00;;;;;;;;;;6227827;23;20163;-89
2022/07/01 01:08:48;;;;;;;16.00;5.15;;;;;;;;;;6227509;23;20170;-89
2022/07/01 01:11:55;;;;;;;9.75;4.10;;;;;;;;;;6208083;23;20162;-89
2022/07/01 01:15:00;;;;;;;9.43;4.80;;;;;;;;;;6208109;23;20167;-89
2022/07/01 01:18:05;;;;;;;12.48;4.63;;;;;;;;;;6206518;23;20247;-89
2022/07/01 01:21:12;;;;;;;6.85;4.38;;;;;;;;;;6205501;23;20244;-89
2022/07/01 01:24:17;;;;;;;8.98;3.90;;;;;;;;;;6206826;23;20167;-88
2022/07/01 01:27:22;;;;;;;8.02;4.28;;;;;;;;;;6207181;23;20164;-89
2022/07/01 01:30:27;;;;;;;10.90;4.72;;;;;;;;;;6207507;23;20217;-89
2022/07/01 01:33:32;;;;;;;8.20;4.40;;;;;;;;;;6206915;23;20495;-90
2022/07/01 01:36:39;;;;;;;14.70;4.90;;;;;;;;;;6205508;23;20206;-88
2022/07/01 01:39:44;;;;;;;6.28;4.38;;;;;;;;;;6206807;23;20158;-88
2022/07/01 01:42:50;;;;;;;6.63;3.80;;;;;;;;;;6206416;23;20245;-89
2022/07/01 01:45:55;;;;;;;8.05;3.85;;;;;;;;;;6206297;23;20179;-89
2022/07/01 01:49:00;;;;;;;5.70;3.38;;;;;;;;;;6226088;23;20202;-89
2022/07/01 01:52:07;;;;;;;8.50;4.53;;;;;;;;;;6206640;23;20167;-90
2022/07/01 01:55:13;;;;;;;10.10;3.40;;;;;;;;;;6208002;23;20155;-89
2022/07/01 01:58:18;;;;;;;10.68;3.60;;;;;;;;;;6208123;23;20251;-88
2022/07/01 02:01:23;;;;;;;16.67;3.95;;;;;;;;;;6207969;23;20182;-89
2022/07/01 02:04:28;;;;;;;7.10;3.28;;;;;;;;;;6226421;23;20167;-88
2022/07/01 02:07:35;;;;;;;8.60;3.67;;;;;;;;;;6206639;23;20642;-89
2022/07/01 02:10:40;;;;;;;12.23;3.15;;;;;;;;;;6205947;23;20167;-90
2022/07/01 02:13:45;;;;;;;12.02;3.25;;;;;;;;;;6208362;23;20155;-89
2022/07/01 02:16:50;;;;;;;8.68;3.60;;;;;;;;;;6207896;23;20251;-90
2022/07/01 02:19:55;;;;;;;11.23;3.40;;;;;;;;;;6207521;23;20616;-90
2022/07/01 02:23:02;;;;;;;6.07;3.10;;;;;;;;;;6207380;23;20163;-89
2022/07/01 02:26:07;;;;;;;6.72;3.45;;;;;;;;;;6206270;23;20582;-89
2022/07/01 02:29:13;;;;;;;9.07;3.60;;;;;;;;;;6207722;23;20171;-90
2022/07/01 02:32:18;;;;;;;6.43;4.03;;;;;;;;;;6207012;23;20191;-89
2022/07/01 02:35:23;;;;;;;8.65;3.50;;;;;;;;;;6206753;23;20163;-90
2022/07/01 02:38:30;;;;;;;8.15;3.20;;;;;;;;;;6206298;23;20816;-90
2022/07/01 02:42:22;;;;;;;6.70;3.53;;;;;;;;;;6205560;23;20619;-89
2022/07/01 02:45:01;;;;;;;7.55;3.20;;;;;;;;;;6208186;23;20415;-89
2022/07/01 02:48:06;;;;;;;4.38;3.20;;;;;;;;;;6208353;23;20171;-90
2022/07/01 02:51:11;;;;;;;8.70;3.28;;;;;;;;;;6207755;23;20170;-87
2022/07/01 02:54:18;;;;;;;7.68;3.25;;;;;;;;;;6207628;23;20170;-90
2022/07/01 02:57:23;;;;;;;7.20;3.13;;;;;;;;;;6206823;23;20171;-90
2022/07/01 03:00:29;;;;;;;6.30;2.85;;;;;;;;;;6208137;23;20179;-88
2022/07/01 03:03:34;;;;;;;10.27;3.33;;;;;;;;;;6208119;23;20163;-89
2022/07/01 03:06:40;;;;;;;6.70;3.08;;;;;;;;;;6207984;23;20166;-88
2022/07/01 03:09:47;;;;;;;6.57;3.13;;;;;;;;;;6208338;23;20524;-87
2022/07/01 03:12:52;;;;;;;10.13;3.33;;;;;;;;;;6207894;23;20250;-89
2022/07/01 03:15:57;;;;;;;8.23;3.13;;;;;;;;;;6224799;23;20179;-89
2022/07/01 03:19:02;;;;;;;7.40;2.63;;;;;;;;;;6207570;23;20183;-87
2022/07/01 03:22:07;;;;;;;6.82;2.58;;;;;;;;;;6208467;23;20248;-88
2022/07/01 03:25:14;;;;;;;13.98;2.67;;;;;;;;;;6207919;23;20238;-88
2022/07/01 03:28:21;;;;;;;6.28;2.65;;;;;;;;;;6208155;23;20186;-88
2022/07/01 03:31:26;;;;;;;4.97;2.40;;;;;;;;;;6208682;23;20497;-88
2022/07/01 03:34:31;;;;;;;9.05;2.80;;;;;;;;;;6209316;23;20168;-88
2022/07/01 03:37:36;;;;;;;6.97;2.20;;;;;;;;;;6208858;23;20186;-88
2022/07/01 03:40:42;;;;;;;9.10;2.75;;;;;;;;;;6209188;23;20159;-88
2022/07/01 03:43:47;;;;;;;10.10;2.90;;;;;;;;;;6207564;23;20167;-88
2022/07/01 03:46:53;;;;;;;5.25;2.35;;;;;;;;;;6209368;23;20155;-89
2022/07/01 03:49:58;;;;;;;6.25;2.65;;;;;;;;;;6208262;23;20171;-87
2022/07/01 03:56:27;;;;;;;7.82;3.13;;;;;;;;;;6209814;23;20197;-88
2022/07/01 03:59:33;;;;;;;6.57;2.55;;;;;;;;;;6209726;23;20194;-88
2022/07/01 04:06:53;;;;;;;6.78;2.97;;;;;;;;;;6229209;23;20206;-88
2022/07/01 04:09:59;;;;;;;9.02;3.10;;;;;;;;;;6211361;23;20186;-89
2022/07/01 04:13:05;;;;;;;5.40;2.90;;;;;;;;;;6209428;23;20170;-88
2022/07/01 04:16:10;;;;;;;6.85;3.30;;;;;;;;;;6208526;23;20171;-88
2022/07/01 04:19:16;;;;;;;10.35;3.08;;;;;;;;;;6209989;23;20183;-89
2022/07/01 04:22:32;;;;;;;14.57;3.40;;;;;;;;;;6209653;23;20162;-89
2022/07/01 04:25:46;;;;;;;5.55;2.80;;;;;;;;;;6229078;23;20249;-88
2022/07/01 04:28:54;;;;;;;9.73;2.95;;;;;;;;;;6209937;23;20247;-89
2022/07/01 04:31:59;;;;;;;6.45;2.97;;;;;;;;;;6208782;23;20246;-89
2022/07/01 04:35:05;;;;;;;7.80;2.67;;;;;;;;;;6228476;23;20498;-90
2022/07/01 04:38:10;;;;;;;5.80;2.95;;;;;;;;;;6210396;23;20175;-90
2022/07/01 04:44:40;;;;;;;6.65;2.60;;;;;;;;;;6209339;23;20191;-89
2022/07/01 04:47:45;;;;;;;7.22;2.38;;;;;;;;;;6213172;23;20183;-90
2022/07/01 04:50:50;;;;;;;5.50;2.58;;;;;;;;;;6211517;23;20228;-89
2022/07/01 04:53:56;;;;;;;4.63;2.53;;;;;;;;;;6208986;23;20183;-89
2022/07/01 04:57:01;;;;;;;7.75;2.90;;;;;;;;;;6210303;23;20175;-89
2022/07/01 05:00:09;;;;;;;5.53;2.38;;;;;;;;;;6210990;23;20699;-90
2022/07/01 05:03:16;;;;;;;6.55;2.13;;;;;;;;;;6210372;23;20167;-89
2022/07/01 05:06:21;;;;;;;7.35;2.42;;;;;;;;;;6209877;23;20155;-89
2022/07/01 05:09:26;;;;;;;8.32;2.53;;;;;;;;;;6209865;23;20171;-88
2022/07/01 05:12:31;;;;;;;4.95;2.47;;;;;;;;;;6210078;23;20191;-89
2022/07/01 05:15:38;;;;;;;7.00;3.05;;;;;;;;;;6209517;23;20172;-87
2022/07/01 05:22:06;;;;;;;3.42;2.35;;;;;;;;;;6209868;23;20221;-89
2022/07/01 05:25:11;;;;;;;9.25;2.67;;;;;;;;;;6210011;23;20175;-89
2022/07/01 05:28:16;;;;;;;5.90;2.50;;;;;;;;;;6209545;23;20171;-90
2022/07/01 05:31:23;;;;;;;4.00;2.47;;;;;;;;;;6209890;23;20167;-88
2022/07/01 05:34:29;;;;;;;7.43;2.45;;;;;;;;;;6210863;23;20310;-89
2022/07/01 05:37:34;;;;;;;6.43;2.50;;;;;;;;;;6214755;23;20191;-89
2022/07/01 05:40:40;;;;;;;5.75;2.40;;;;;;;;;;6212222;23;20179;-90
2022/07/01 05:43:49;;;;;;;3.80;2.22;;;;;;;;;;6208715;23;20171;-89
2022/07/01 05:46:58;;;;;;;6.18;2.15;;;;;;;;;;6211330;23;20187;-89
2022/07/01 05:50:06;;;;;;;10.50;2.20;;;;;;;;;;6229926;23;20506;-89
2022/07/01 05:53:12;;;;;;;2.95;2.10;;;;;;;;;;6210858;23;20167;-89
2022/07/01 05:56:17;;;;;;;10.20;3.72;;;;;;;;;;6211440;23;20234;-88
2022/07/01 05:59:22;;;;;;;6.20;2.20;;;;;;;;;;6209523;23;20194;-91
2022/07/01 06:02:29;;;;;;;5.93;1.80;;;;;;;;;;6210407;23;20151;-89
2022/07/01 06:05:34;;;;;;;6.05;2.00;;;;;;;;;;6212527;23;20159;-90
2022/07/01 06:08:43;;;;;;;6.00;2.08;;;;;;;;;;6209790;23;20168;-89
2022/07/01 06:11:52;;;;;;;3.60;2.00;;;;;;;;;;6211999;23;20215;-88
2022/07/01 06:14:58;;;;;;;6.90;2.20;;;;;;;;;;6210833;23;20214;-91
2022/07/01 06:18:05;;;;;;;4.00;2.15;;;;;;;;;;6210159;23;20212;-89
2022/07/01 06:21:10;;;;;;;4.53;2.30;;;;;;;;;;6209816;23;20171;-90
2022/07/01 06:24:15;;;;;;;3.90;1.80;;;;;;;;;;6210279;23;20603;-91
2022/07/01 06:27:21;;;;;;;9.05;1.80;;;;;;;;;;6209313;23;20216;-90
2022/07/01 06:30:26;;;;;;;6.25;1.95;;;;;;;;;;6210013;23;20154;-90
2022/07/01 06:33:33;;;;;;;2.35;1.70;;;;;;;;;;6210603;23;20163;-90
2022/07/01 06:36:39;;;;;;;5.68;1.92;;;;;;;;;;6209520;23;20195;-90
2022/07/01 06:39:51;;;;;;;4.78;2.00;;;;;;;;;;6209868;23;20191;-90
2022/07/01 06:42:56;;;;;;;11.38;1.90;;;;;;;;;;6211063;23;20166;-91
2022/07/01 06:46:01;;;;;;;3.65;1.90;;;;;;;;;;6210861;23;20167;-89
2022/07/01 06:49:08;;;;;;;4.03;1.60;;;;;;;;;;6208579;23;20286;-90
2022/07/01 06:52:13;;;;;;;5.53;1.73;;;;;;;;;;6210335;23;20150;-89
2022/07/01 06:55:19;;;;;;;3.28;1.90;;;;;;;;;;6211198;23;20162;-90
2022/07/01 06:58:24;;;;;;;4.85;2.03;;;;;;;;;;6209618;23;20267;-91
2022/07/01 07:01:30;;;;;;;5.32;1.83;;;;;;;;;;6210633;23;20163;-90
2022/07/01 07:04:57;;;;;;;4.03;1.80;;;;;;;;;;6208227;23;20171;-90
2022/07/01 07:08:05;;;;;;;6.10;2.00;;;;;;;;;;6208426;23;20175;-91
2022/07/01 07:11:09;;;;;;;4.40;1.80;;;;;;;;;;6207542;23;20254;-89
2022/07/01 07:14:15;;;;;;;9.75;1.90;;;;;;;;;;6206577;23;20151;-90
2022/07/01 07:17:20;;;;;;;6.35;1.70;;;;;;;;;;6208404;23;20291;-90
2022/07/01 07:20:26;;;;;;;4.45;1.80;;;;;;;;;;6208040;23;20183;-89
2022/07/01 07:23:32;;;;;;;3.78;1.90;;;;;;;;;;6208253;23;20154;-88
2022/07/01 07:26:38;;;;;;;8.07;2.15;;;;;;;;;;6211089;23;20211;-90
2022/07/01 07:29:43;;;;;;;3.63;2.03;;;;;;;;;;6208627;23;20313;-89
2022/07/01 07:32:49;;;;;;;9.75;2.70;;;;;;;;;;6209955;23;20163;-90
2022/07/01 07:35:55;;;;;;;6.70;2.50;;;;;;;;;;6208300;23;20214;-90
2022/07/01 07:39:01;;;;;;;7.15;2.78;;;;;;;;;;6209650;23;20380;-91
2022/07/01 07:42:06;;;;;;;4.63;1.80;;;;;;;;;;6210855;23;20194;-90
2022/07/01 07:45:13;;;;;;;9.02;3.63;;;;;;;;;;6212279;23;20179;-89
2022/07/01 07:48:18;;;;;;;18.58;3.10;;;;;;;;;;6209932;23;20175;-90
2022/07/01 07:51:24;;;;;;;3.38;2.05;;;;;;;;;;6209354;23;20166;-91
2022/07/01 07:54:31;;;;;;;12.15;2.65;;;;;;;;;;6210264;23;20290;-89
2022/07/01 07:57:37;;;;;;;5.85;2.35;;;;;;;;;;6212439;23;20175;-92
2022/07/01 08:00:42;;;;;;;3.40;1.60;;;;;;;;;;6211573;23;20210;-91
2022/07/01 08:03:48;;;;;;;3.75;1.95;;;;;;;;;;6210765;23;20163;-90
2022/07/01 08:06:53;;;;;;;5.63;2.00;;;;;;;;;;6211365;23;20169;-90
2022/07/01 08:10:00;;;;;;;7.57;1.70;;;;;;;;;;6211512;23;20214;-90
2022/07/01 08:13:05;;;;;;;3.97;2.00;;;;;;;;;;6210939;23;20179;-91
2022/07/01 08:16:11;;;;;;;4.57;2.00;;;;;;;;;;6208920;23;20287;-90
2022/07/01 08:19:16;;;;;;;4.28;1.98;;;;;;;;;;6210086;23;20174;-91
2022/07/01 08:22:21;;;;;;;3.65;1.92;;;;;;;;;;6211690;23;20294;-89
2022/07/01 08:25:28;;;;;;;5.05;1.88;;;;;;;;;;6210438;23;20168;-89
2022/07/01 08:28:35;;;;;;;5.03;1.90;;;;;;;;;;6210363;23;20155;-91
2022/07/01 08:31:41;;;;;;;6.88;4.35;;;;;;;;;;6208478;23;20190;-92
2022/07/01 08:34:47;;;;;;;4.65;2.45;;;;;;;;;;6213332;23;20178;-90
2022/07/01 08:37:52;;;;;;;4.43;1.60;;;;;;;;;;6213462;23;20175;-90
2022/07/01 08:41:01;;;;;;;5.03;3.58;;;;;;;;;;6210861;23;20218;-91
2022/07/01 08:44:06;;;;;;;5.78;1.58;;;;;;;;;;6209321;23;20240;-91
2022/07/01 08:47:13;;;;;;;2.50;1.60;;;;;;;;;;6211212;23;20162;-91
2022/07/01 08:50:23;;;;;;;7.43;2.10;;;;;;;;;;6209555;23;20162;-90
2022/07/01 08:53:28;;;;;;;9.00;1.70;;;;;;;;;;6210687;23;20162;-90
2022/07/01 08:56:45;;;;;;;3.65;1.88;;;;;;;;;;6211869;23;20496;-90
2022/07/01 09:00:03;;;;;;;8.60;2.30;;;;;;;;;;6210592;23;20186;-90
2022/07/01 09:03:08;;;;;;;3.50;1.52;;;;;;;;;;6211752;23;20163;-91
2022/07/01 09:06:15;;;;;;;2.33;1.60;;;;;;;;;;6214105;23;20151;-91
2022/07/01 09:09:25;;;;;;;3.80;1.77;;;;;;;;;;6211780;23;20163;-90
2022/07/01 09:12:42;;;;;;;2.50;1.50;;;;;;;;;;6209825;23;20171;-90
2022/07/01 09:15:46;;;;;;;2.70;1.70;;;;;;;;;;6211798;23;20232;-90
2022/07/01 09:19:01;;;;;;;3.97;1.90;;;;;;;;;;6208435;23;20195;-91
2022/07/01 09:22:06;;;;;;;4.95;2.05;;;;;;;;;;6213186;23;20171;-92
2022/07/01 09:25:14;;;;;;;3.63;1.67;;;;;;;;;;6209353;23;20175;-90
2022/07/01 09:28:26;;;;;;;4.38;1.80;;;;;;;;;;6209508;23;20623;-89
2022/07/01 09:31:34;;;;;;;4.10;1.70;;;;;;;;;;6210814;23;20178;-90
2022/07/01 09:34:42;;;;;;;3.97;1.60;;;;;;;;;;6209101;23;20174;-88
2022/07/01 09:37:56;;;;;;;3.05;1.73;;;;;;;;;;6210692;23;20190;-90
2022/07/01 09:41:02;;;;;;;5.07;1.90;;;;;;;;;;6193151;23;20198;-89
2022/07/01 09:44:23;;;;;;;3.72;1.67;;;;;;;;;;6214915;23;20159;-89
2022/07/01 09:47:30;;;;;;;3.83;1.80;;;;;;;;;;6210069;23;20245;-90
2022/07/01 09:50:36;;;;;;;5.95;2.40;;;;;;;;;;6210815;23;20316;-91
2022/07/01 09:53:41;;;;;;;3.08;1.98;;;;;;;;;;6211510;23;20226;-90
2022/07/01 09:56:47;;;;;;;4.90;1.92;;;;;;;;;;6210847;23;20167;-90
2022/07/01 09:59:52;;;;;;;5.47;2.10;;;;;;;;;;6210370;23;20655;-91
2022/07/01 10:03:01;;;;;;;8.25;1.75;;;;;;;;;;6210897;23;20663;-89
2022/07/01 10:06:15;;;;;;;3.30;2.00;;;;;;;;;;6214552;23;20635;-90
2022/07/01 10:09:27;;;;;;;3.65;1.75;;;;;;;;;;6209805;23;20163;-89
2022/07/01 10:12:37;;;;;;;5.25;1.70;;;;;;;;;;6210743;23;20171;-90
2022/07/01 10:15:43;;;;;;;4.57;1.80;;;;;;;;;;6210592;23;20171;-90
2022/07/01 10:18:50;;;;;;;5.32;1.80;;;;;;;;;;6208485;23;20158;-90
2022/07/01 10:22:01;;;;;;;6.78;1.80;;;;;;;;;;6207687;23;20158;-91
2022/07/01 10:25:25;;;;;;;3.85;1.60;;;;;;;;;;6212093;23;20167;-90
2022/07/01 10:28:31;;;;;;;2.72;1.70;;;;;;;;;;6209757;23;20167;-89
2022/07/01 10:31:38;;;;;;;3.05;1.60;;;;;;;;;;6211104;23;20446;-90
2022/07/01 10:34:44;;;;;;;4.75;1.90;;;;;;;;;;6210433;23;20294;-88
2022/07/01 10:37:59;;;;;;;5.97;1.58;;;;;;;;;;6209745;23;20190;-90
2022/07/01 10:41:11;;;;;;;5.78;1.52;;;;;;;;;;6212126;23;20195;-89
2022/07/01 10:44:18;;;;;;;4.53;1.90;;;;;;;;;;6211705;23;20163;-90
2022/07/01 10:47:23;;;;;;;2.70;1.60;;;;;;;;;;6213120;23;20235;-91
2022/07/01 10:50:39;;;;;;;4.45;1.77;;;;;;;;;;6210092;23;20226;-89
2022/07/01 10:53:47;;;;;;;5.70;2.00;;;;;;;;;;6209052;23;20191;-90
2022/07/01 10:56:53;;;;;;;3.33;1.75;;;;;;;;;;6208137;23;20207;-90
2022/07/01 11:00:18;;;;;;;2.53;1.80;;;;;;;;;;6208613;23;20172;-89
2022/07/01 11:03:25;;;;;;;3.40;1.40;;;;;;;;;;6208956;23;20238;-88
2022/07/01 11:06:36;;;;;;;3.03;1.50;;;;;;;;;;6210489;23;20166;-90
2022/07/01 11:09:41;;;;;;;3.63;1.50;;;;;;;;;;6210130;23;20166;-89
2022/07/01 11:12:48;;;;;;;7.05;2.05;;;;;;;;;;6210033;23;20221;-90
2022/07/01 11:15:53;;;;;;;2.40;1.60;;;;;;;;;;6210437;23;20167;-90
2022/07/01 11:19:02;;;;;;;6.53;1.50;;;;;;;;;;6209460;23;20167;-90
2022/07/01 11:22:08;;;;;;;3.42;1.58;;;;;;;;;;6209657;23;20193;-88
2022/07/01 11:25:14;;;;;;;6.00;1.40;;;;;;;;;;6211876;23;20231;-89
2022/07/01 11:28:19;;;;;;;2.42;1.42;;;;;;;;;;6210004;23;20276;-89
2022/07/01 11:31:29;;;;;;;3.60;1.30;;;;;;;;;;6209675;23;20170;-88
2022/07/01 11:34:36;;;;;;;4.57;1.60;;;;;;;;;;6210552;23;20158;-89
2022/07/01 11:41:24;;;;;;;4.20;2.03;;;;;;;;;;6186991;23;20199;-90
2022/07/01 11:44:34;;;;;;;1.85;1.60;;;;;;;;;;6211546;23;20229;-91
2022/07/01 11:47:41;;;;;;;5.65;1.60;;;;;;;;;;6209354;23;20163;-89
2022/07/01 11:50:51;;;;;;;2.55;1.42;;;;;;;;;;6208596;23;20162;-91
2022/07/01 11:53:58;;;;;;;2.15;1.58;;;;;;;;;;6209369;23;20212;-90
2022/07/01 11:57:12;;;;;;;1.92;1.52;;;;;;;;;;6208521;23;20179;-89
2022/07/01 12:00:18;;;;;;;3.88;1.40;;;;;;;;;;6209302;23;20215;-89
2022/07/01 12:03:33;;;;;;;4.05;1.58;;;;;;;;;;6210177;23;20207;-89
2022/07/01 12:06:42;;;;;;;6.40;1.65;;;;;;;;;;6211201;23;20177;-90
2022/07/01 12:13:22;;;;;;;5.00;1.85;;;;;;;;;;6212396;23;20162;-90
2022/07/01 12:16:28;;;;;;;4.47;1.50;;;;;;;;;;6207788;23;20170;-91
2022/07/01 12:19:40;;;;;;;3.00;1.88;;;;;;;;;;6210463;23;20152;-89
2022/07/01 12:22:49;;;;;;;6.05;2.03;;;;;;;;;;6210970;23;20170;-90
2022/07/01 12:25:58;;;;;;;3.83;2.55;;;;;;;;;;6210101;23;20167;-89
2022/07/01 12:29:03;;;;;;;5.45;3.10;;;;;;;;;;6210230;23;20174;-90
2022/07/01 12:32:12;;;;;;;7.30;2.85;;;;;;;;;;6212741;23;20187;-91
2022/07/01 12:35:38;;;;;;;4.65;2.60;;;;;;;;;;6210686;23;20171;-91
2022/07/01 12:38:43;;;;;;;2.75;2.08;;;;;;;;;;6212422;23;20167;-90
2022/07/01 12:41:53;;;;;;;3.90;1.73;;;;;;;;;;6212464;23;20226;-89
2022/07/01 12:45:02;;;;;;;3.17;1.70;;;;;;;;;;6211336;23;20172;-89
2022/07/01 12:48:07;;;;;;;4.03;1.77;;;;;;;;;;6210701;23;20183;-90
2022/07/01 12:51:16;;;;;;;3.78;1.75;;;;;;;;;;6213692;23;20175;-90
2022/07/01 12:54:33;;;;;;;2.65;1.40;;;;;;;;;;6211674;23;20183;-91
2022/07/01 12:57:41;;;;;;;1.70;1.30;;;;;;;;;;6210436;23;20202;-88
2022/07/01 13:00:48;;;;;;;5.35;1.55;;;;;;;;;;6212460;23;20191;-90
2022/07/01 13:04:13;;;;;;;2.83;1.25;;;;;;;;;;6211148;23;20171;-90
2022/07/01 13:07:18;;;;;;;2.13;1.30;;;;;;;;;;6210245;23;20179;-90
2022/07/01 13:10:25;;;;;;;3.03;0.95;;;;;;;;;;6209323;23;20175;-89
2022/07/01 13:13:32;;;;;;;4.00;1.10;;;;;;;;;;6208152;23;20224;-90
2022/07/01 13:16:37;;;;;;;4.18;0.90;;;;;;;;;;6211199;23;20163;-90
2022/07/01 13:19:48;;;;;;;1.20;1.05;;;;;;;;;;6210383;23;20641;-90
2022/07/01 13:22:54;;;;;;;1.65;0.90;;;;;;;;;;6211201;23;20171;-90
2022/07/01 13:25:59;;;;;;;1.73;1.20;;;;;;;;;;6211645;23;20170;-90
2022/07/01 13:29:06;;;;;;;5.35;1.10;;;;;;;;;;6213689;23;20167;-90
2022/07/01 13:32:12;;;;;;;2.25;1.10;;;;;;;;;;6210829;23;20258;-89
2022/07/01 13:35:17;;;;;;;3.45;1.30;;;;;;;;;;6211630;23;20155;-89
2022/07/01 13:38:22;;;;;;;5.30;1.20;;;;;;;;;;6211423;23;20178;-90
2022/07/01 13:41:28;;;;;;;3.22;1.40;;;;;;;;;;6209135;23;20210;-90
2022/07/01 13:44:34;;;;;;;2.22;1.38;;;;;;;;;;6209624;23;20179;-91
2022/07/01 13:47:39;;;;;;;2.58;1.30;;;;;;;;;;6209261;23;20291;-90
2022/07/01 13:50:44;;;;;;;5.03;1.50;;;;;;;;;;6208426;23;20190;-88
2022/07/01 13:53:50;;;;;;;2.03;1.60;;;;;;;;;;6208632;23;20217;-89
2022/07/01 13:56:55;;;;;;;1.83;1.50;;;;;;;;;;6210924;23;20163;-89
2022/07/01 14:00:02;;;;;;;3.47;1.42;;;;;;;;;;6210836;23;20233;-90
2022/07/01 14:03:13;;;;;;;3.63;1.70;;;;;;;;;;6227486;23;20167;-89
2022/07/01 14:06:19;;;;;;;4.65;1.60;;;;;;;;;;6208902;23;20167;-88
2022/07/01 14:09:24;;;;;;;2.08;1.38;;;;;;;;;;6209087;23;20166;-89
2022/07/01 14:12:30;;;;;;;5.05;1.50;;;;;;;;;;6214306;23;20630;-89
2022/07/01 14:15:36;;;;;;;1.80;1.25;;;;;;;;;;6209917;23;20170;-90
2022/07/01 14:18:41;;;;;;;2.70;1.10;;;;;;;;;;6211700;23;20228;-90
2022/07/01 14:21:46;;;;;;;1.88;1.20;;;;;;;;;;6209340;23;20665;-89
2022/07/01 14:24:52;;;;;;;2.83;1.23;;;;;;;;;;6209610;23;20219;-90
2022/07/01 14:27:57;;;;;;;1.92;0.85;;;;;;;;;;6208795;23;20289;-89
2022/07/01 14:31:03;;;;;;;2.75;1.00;;;;;;;;;;6213242;23;20183;-89
2022/07/01 14:34:12;;;;;;;5.68;1.42;;;;;;;;;;6213008;23;20164;-90
2022/07/01 14:37:18;;;;;;;8.80;1.33;;;;;;;;;;6212629;23;20760;-89
2022/07/01 14:40:24;;;;;;;2.92;0.90;;;;;;;;;;6210233;23;20174;-90
2022/07/01 14:43:31;;;;;;;2.95;0.90;;;;;;;;;;6211352;23;20150;-89
2022/07/01 14:46:37;;;;;;;3.65;1.00;;;;;;;;;;6210592;23;20174;-89
2022/07/01 14:49:44;;;;;;;6.75;1.27;;;;;;;;;;6212291;23;20206;-88
2022/07/01 14:52:50;;;;;;;3.00;0.82;;;;;;;;;;6211341;23;20170;-88
2022/07/01 14:55:54;;;;;;;6.35;1.55;;;;;;;;;;6211223;23;20167;-90
2022/07/01 14:58:59;;;;;;;2.35;0.80;;;;;;;;;;6209965;23;20175;-89
2022/07/01 15:02:06;;;;;;;1.85;1.10;;;;;;;;;;6209513;23;20203;-87
2022/07/01 15:05:11;;;;;;;2.15;0.95;;;;;;;;;;6210867;23;20499;-89
2022/07/01 15:08:16;;;;;;;2.58;1.10;;;;;;;;;;6210128;23;20182;-90
2022/07/01 15:11:21;;;;;;;4.18;1.58;;;;;;;;;;6210885;23;20167;-89
2022/07/01 15:14:27;;;;;;;11.23;2.35;;;;;;;;;;6211137;23;20227;-89
2022/07/01 15:17:33;;;;;;;10.15;2.70;;;;;;;;;;6211492;23;20297;-88
2022/07/01 15:20:38;;;;;;;5.90;2.05;;;;;;;;;;6210693;23;20212;-89
2022/07/01 15:23:44;;;;;;;8.50;2.05;;;;;;;;;;6216953;23;20208;-89
2022/07/01 15:26:49;;;;;;;7.53;2.10;;;;;;;;;;6211678;23;20175;-89
